sensor_id;sensor_type;location;lat;lon;timestamp;temperature;humidity
12845;DHT22;6489;48.508;9.206;2022-09-02T00:02:54;16.00;1.00
12845;DHT22;6489;48.508;9.206;2022-09-02T00:06:18;16.30;1.00
12845;DHT22;6489;48.508;9.206;2022-09-02T00:09:40;16.40;1.00
12845;DHT22;6489;48.508;9.206;2022-09-02T00:13:02;16.20;1.00
12845;DHT22;6489;48.508;9.206;2022-09-02T00:16:25;16.10;1.00
12845;DHT22;6489;48.508;9.206;2022-09-02T00:23:11;15.90;1.00
12845;DHT22;6489;48.508;9.206;2022-09-02T00:26:33;16.10;1.00
12845;DHT22;6489;48.508;9.206;2022-09-02T00:33:17;15.90;1.00
12845;DHT22;6489;48.508;9.206;2022-09-02T00:36:39;15.30;1.00
12845;DHT22;6489;48.508;9.206;2022-09-02T00:40:04;15.50;1.00
12845;DHT22;6489;48.508;9.206;2022-09-02T00:43:39;15.30;1.00
12845;DHT22;6489;48.508;9.206;2022-09-02T00:47:01;15.20;1.00
12845;DHT22;6489;48.508;9.206;2022-09-02T00:50:27;15.50;1.00
12845;DHT22;6489;48.508;9.206;2022-09-02T00:53:50;14.70;1.00
12845;DHT22;6489;48.508;9.206;2022-09-02T00:57:14;14.90;1.00
12845;DHT22;6489;48.508;9.206;2022-09-02T01:00:42;15.10;1.00
12845;DHT22;6489;48.508;9.206;2022-09-02T01:07:30;14.70;1.00
12845;DHT22;6489;48.508;9.206;2022-09-02T01:10:53;14.60;1.00
12845;DHT22;6489;48.508;9.206;2022-09-02T01:17:40;14.10;1.00
12845;DHT22;6489;48.508;9.206;2022-09-02T01:21:04;14.60;1.00
12845;DHT22;6489;48.508;9.206;2022-09-02T01:24:30;14.20;1.00
12845;DHT22;6489;48.508;9.206;2022-09-02T01:27:58;14.40;1.00
12845;DHT22;6489;48.508;9.206;2022-09-02T01:31:20;14.40;1.00
12845;DHT22;6489;48.508;9.206;2022-09-02T01:34:42;14.50;1.00
12845;DHT22;6489;48.508;9.206;2022-09-02T01:38:04;14.50;1.00
12845;DHT22;6489;48.508;9.206;2022-09-02T01:44:50;14.00;1.00
12845;DHT22;6489;48.508;9.206;2022-09-02T01:48:12;14.30;1.00
12845;DHT22;6489;48.508;9.206;2022-09-02T01:51:34;14.50;1.00
12845;DHT22;6489;48.508;9.206;2022-09-02T01:54:57;13.90;1.00
12845;DHT22;6489;48.508;9.206;2022-09-02T01:58:21;13.90;1.00
12845;DHT22;6489;48.508;9.206;2022-09-02T02:01:43;14.00;1.00
12845;DHT22;6489;48.508;9.206;2022-09-02T02:05:05;13.90;1.00
12845;DHT22;6489;48.508;9.206;2022-09-02T02:08:27;13.80;1.00
12845;DHT22;6489;48.508;9.206;2022-09-02T02:11:49;14.40;1.00
12845;DHT22;6489;48.508;9.206;2022-09-02T02:15:16;14.00;1.00
12845;DHT22;6489;48.508;9.206;2022-09-02T02:18:38;14.00;1.00
12845;DHT22;6489;48.508;9.206;2022-09-02T02:22:00;13.60;1.00
12845;DHT22;6489;48.508;9.206;2022-09-02T02:25:22;13.90;1.00
12845;DHT22;6489;48.508;9.206;2022-09-02T02:28:44;13.80;1.00
12845;DHT22;6489;48.508;9.206;2022-09-02T02:35:30;13.70;1.00
12845;DHT22;6489;48.508;9.206;2022-09-02T02:38:52;13.30;1.00
12845;DHT22;6489;48.508;9.206;2022-09-02T02:42:14;14.00;1.00
12845;DHT22;6489;48.508;9.206;2022-09-02T02:45:37;14.10;1.00
12845;DHT22;6489;48.508;9.206;2022-09-02T02:49:01;14.70;1.00
12845;DHT22;6489;48.508;9.206;2022-09-02T02:52:23;14.50;1.00
12845;DHT22;6489;48.508;9.206;2022-09-02T02:55:45;14.80;1.00
12845;DHT22;6489;48.508;9.206;2022-09-02T02:59:07;14.50;1.00
12845;DHT22;6489;48.508;9.206;2022-09-02T03:02:29;14.80;1.00
12845;DHT22;6489;48.508;9.206;2022-09-02T03:05:55;15.20;1.00
12845;DHT22;6489;48.508;9.206;2022-09-02T03:09:16;15.30;1.00
12845;DHT22;6489;48.508;9.206;2022-09-02T03:12:40;15.70;1.00
12845;DHT22;6489;48.508;9.206;2022-09-02T03:16:03;15.70;1.00
12845;DHT22;6489;48.508;9.206;2022-09-02T03:19:25;14.90;1.00
12845;DHT22;6489;48.508;9.206;2022-09-02T03:26:18;15.40;99.90
12845;DHT22;6489;48.508;9.206;2022-09-02T03:33:04;15.10;1.00
12845;DHT22;6489;48.508;9.206;2022-09-02T03:36:28;15.10;1.00
12845;DHT22;6489;48.508;9.206;2022-09-02T03:39:52;15.50;1.00
12845;DHT22;6489;48.508;9.206;2022-09-02T03:43:14;14.90;1.00
12845;DHT22;6489;48.508;9.206;2022-09-02T03:46:36;15.00;1.00
12845;DHT22;6489;48.508;9.206;2022-09-02T03:53:20;14.60;1.00
12845;DHT22;6489;48.508;9.206;2022-09-02T03:56:43;15.20;1.00
12845;DHT22;6489;48.508;9.206;2022-09-02T04:00:12;15.00;1.00
12845;DHT22;6489;48.508;9.206;2022-09-02T04:03:34;14.60;1.00
12845;DHT22;6489;48.508;9.206;2022-09-02T04:06:56;15.30;1.00
12845;DHT22;6489;48.508;9.206;2022-09-02T04:10:19;15.20;1.00
12845;DHT22;6489;48.508;9.206;2022-09-02T04:13:43;15.00;1.00
12845;DHT22;6489;48.508;9.206;2022-09-02T04:21:22;14.50;1.00
12845;DHT22;6489;48.508;9.206;2022-09-02T04:24:44;15.10;1.00
12845;DHT22;6489;48.508;9.206;2022-09-02T04:31:29;14.40;1.00
12845;DHT22;6489;48.508;9.206;2022-09-02T04:34:51;14.20;1.00
12845;DHT22;6489;48.508;9.206;2022-09-02T04:38:13;14.40;1.00
12845;DHT22;6489;48.508;9.206;2022-09-02T04:41:36;13.80;1.00
12845;DHT22;6489;48.508;9.206;2022-09-02T04:44:58;13.70;1.00
12845;DHT22;6489;48.508;9.206;2022-09-02T04:48:21;13.80;1.00
12845;DHT22;6489;48.508;9.206;2022-09-02T04:51:43;13.60;1.00
12845;DHT22;6489;48.508;9.206;2022-09-02T04:55:05;13.30;1.00
12845;DHT22;6489;48.508;9.206;2022-09-02T04:58:27;13.60;1.00
12845;DHT22;6489;48.508;9.206;2022-09-02T05:01:49;13.10;17.40
12845;DHT22;6489;48.508;9.206;2022-09-02T05:05:12;13.00;21.70
12845;DHT22;6489;48.508;9.206;2022-09-02T05:08:34;13.10;37.50
12845;DHT22;6489;48.508;9.206;2022-09-02T05:11:57;13.80;1.00
12845;DHT22;6489;48.508;9.206;2022-09-02T05:15:24;13.10;1.00
12845;DHT22;6489;48.508;9.206;2022-09-02T05:22:10;13.80;1.00
12845;DHT22;6489;48.508;9.206;2022-09-02T05:25:31;14.20;1.00
12845;DHT22;6489;48.508;9.206;2022-09-02T05:28:54;14.20;1.00
12845;DHT22;6489;48.508;9.206;2022-09-02T05:32:16;14.40;1.00
12845;DHT22;6489;48.508;9.206;2022-09-02T05:35:39;14.50;1.00
12845;DHT22;6489;48.508;9.206;2022-09-02T05:39:03;14.80;1.00
12845;DHT22;6489;48.508;9.206;2022-09-02T05:42:25;15.30;1.00
12845;DHT22;6489;48.508;9.206;2022-09-02T05:52:37;15.40;1.00
12845;DHT22;6489;48.508;9.206;2022-09-02T05:56:02;15.80;1.00
12845;DHT22;6489;48.508;9.206;2022-09-02T06:06:11;17.00;1.00
12845;DHT22;6489;48.508;9.206;2022-09-02T06:09:33;16.50;1.00
12845;DHT22;6489;48.508;9.206;2022-09-02T06:12:57;16.80;1.00
12845;DHT22;6489;48.508;9.206;2022-09-02T06:19:42;17.60;1.00
12845;DHT22;6489;48.508;9.206;2022-09-02T06:23:04;17.60;1.00
12845;DHT22;6489;48.508;9.206;2022-09-02T06:26:26;18.00;1.00
12845;DHT22;6489;48.508;9.206;2022-09-02T06:29:49;17.90;1.00
12845;DHT22;6489;48.508;9.206;2022-09-02T06:33:11;18.40;1.00
12845;DHT22;6489;48.508;9.206;2022-09-02T06:36:33;18.40;1.00
12845;DHT22;6489;48.508;9.206;2022-09-02T06:39:55;17.90;1.00
12845;DHT22;6489;48.508;9.206;2022-09-02T06:43:16;18.30;1.00
12845;DHT22;6489;48.508;9.206;2022-09-02T06:46:42;18.60;1.00
12845;DHT22;6489;48.508;9.206;2022-09-02T06:50:05;18.80;1.00
12845;DHT22;6489;48.508;9.206;2022-09-02T06:53:27;18.60;1.00
12845;DHT22;6489;48.508;9.206;2022-09-02T06:56:50;19.20;1.00
12845;DHT22;6489;48.508;9.206;2022-09-02T07:03:37;18.50;1.00
12845;DHT22;6489;48.508;9.206;2022-09-02T07:14:02;18.30;1.00
12845;DHT22;6489;48.508;9.206;2022-09-02T07:17:24;16.50;1.00
12845;DHT22;6489;48.508;9.206;2022-09-02T07:20:47;18.30;1.00
12845;DHT22;6489;48.508;9.206;2022-09-02T07:24:10;18.10;1.00
12845;DHT22;6489;48.508;9.206;2022-09-02T07:27:35;18.80;1.00
12845;DHT22;6489;48.508;9.206;2022-09-02T07:30:57;18.10;1.00
12845;DHT22;6489;48.508;9.206;2022-09-02T07:37:42;19.10;1.00
12845;DHT22;6489;48.508;9.206;2022-09-02T07:41:05;19.70;1.00
12845;DHT22;6489;48.508;9.206;2022-09-02T07:44:27;19.20;1.00
12845;DHT22;6489;48.508;9.206;2022-09-02T07:47:49;18.80;1.00
12845;DHT22;6489;48.508;9.206;2022-09-02T07:51:11;19.70;1.00
12845;DHT22;6489;48.508;9.206;2022-09-02T07:54:34;19.70;1.00
12845;DHT22;6489;48.508;9.206;2022-09-02T07:57:56;20.40;1.00
12845;DHT22;6489;48.508;9.206;2022-09-02T08:01:18;19.50;1.00
12845;DHT22;6489;48.508;9.206;2022-09-02T08:04:42;19.70;1.00
12845;DHT22;6489;48.508;9.206;2022-09-02T08:08:05;19.80;1.00
12845;DHT22;6489;48.508;9.206;2022-09-02T08:11:28;20.00;1.00
12845;DHT22;6489;48.508;9.206;2022-09-02T08:14:55;20.30;1.00
12845;DHT22;6489;48.508;9.206;2022-09-02T08:18:18;19.30;1.00
12845;DHT22;6489;48.508;9.206;2022-09-02T08:21:40;20.20;1.00
12845;DHT22;6489;48.508;9.206;2022-09-02T08:25:03;20.20;1.00
12845;DHT22;6489;48.508;9.206;2022-09-02T08:28:26;20.60;1.00
12845;DHT22;6489;48.508;9.206;2022-09-02T08:31:48;20.30;1.00
12845;DHT22;6489;48.508;9.206;2022-09-02T08:35:10;21.10;1.00
12845;DHT22;6489;48.508;9.206;2022-09-02T08:48:51;21.70;1.00
12845;DHT22;6489;48.508;9.206;2022-09-02T08:52:18;22.30;1.00
12845;DHT22;6489;48.508;9.206;2022-09-02T08:55:45;23.10;1.00
12845;DHT22;6489;48.508;9.206;2022-09-02T08:59:09;23.20;1.00
12845;DHT22;6489;48.508;9.206;2022-09-02T09:02:38;23.70;99.90
12845;DHT22;6489;48.508;9.206;2022-09-02T09:09:37;24.70;99.90
12845;DHT22;6489;48.508;9.206;2022-09-02T09:20:06;24.80;1.00
12845;DHT22;6489;48.508;9.206;2022-09-02T09:23:30;25.30;99.90
12845;DHT22;6489;48.508;9.206;2022-09-02T09:26:53;24.50;1.00
12845;DHT22;6489;48.508;9.206;2022-09-02T09:33:38;25.70;1.00
12845;DHT22;6489;48.508;9.206;2022-09-02T09:37:02;24.70;1.00
12845;DHT22;6489;48.508;9.206;2022-09-02T09:40:31;25.60;99.90
12845;DHT22;6489;48.508;9.206;2022-09-02T09:47:17;25.50;99.90
12845;DHT22;6489;48.508;9.206;2022-09-02T09:50:40;26.00;1.00
12845;DHT22;6489;48.508;9.206;2022-09-02T09:54:15;26.10;99.90
12845;DHT22;6489;48.508;9.206;2022-09-02T09:57:38;25.50;1.00
12845;DHT22;6489;48.508;9.206;2022-09-02T10:03:41;25.70;99.90
12845;DHT22;6489;48.508;9.206;2022-09-02T10:07:03;25.00;1.00
12845;DHT22;6489;48.508;9.206;2022-09-02T10:10:27;26.00;99.90
12845;DHT22;6489;48.508;9.206;2022-09-02T10:13:49;25.60;1.00
12845;DHT22;6489;48.508;9.206;2022-09-02T10:17:24;25.90;99.90
12845;DHT22;6489;48.508;9.206;2022-09-02T10:20:55;26.10;99.90
12845;DHT22;6489;48.508;9.206;2022-09-02T10:27:54;26.60;1.00
12845;DHT22;6489;48.508;9.206;2022-09-02T10:31:25;25.20;1.00
12845;DHT22;6489;48.508;9.206;2022-09-02T10:34:58;26.40;1.00
12845;DHT22;6489;48.508;9.206;2022-09-02T10:38:36;26.10;99.90
12845;DHT22;6489;48.508;9.206;2022-09-02T10:42:07;25.70;99.90
12845;DHT22;6489;48.508;9.206;2022-09-02T10:45:36;25.20;99.90
12845;DHT22;6489;48.508;9.206;2022-09-02T10:49:09;25.30;99.90
12845;DHT22;6489;48.508;9.206;2022-09-02T10:52:55;25.40;99.90
12845;DHT22;6489;48.508;9.206;2022-09-02T10:56:23;25.40;1.00
12845;DHT22;6489;48.508;9.206;2022-09-02T10:59:51;25.90;1.00
12845;DHT22;6489;48.508;9.206;2022-09-02T11:03:18;26.20;1.00
12845;DHT22;6489;48.508;9.206;2022-09-02T11:06:43;26.30;99.90
12845;DHT22;6489;48.508;9.206;2022-09-02T11:13:36;26.50;1.00
12845;DHT22;6489;48.508;9.206;2022-09-02T11:17:01;26.50;1.00
12845;DHT22;6489;48.508;9.206;2022-09-02T11:20:29;27.50;1.00
12845;DHT22;6489;48.508;9.206;2022-09-02T11:23:58;26.50;1.00
12845;DHT22;6489;48.508;9.206;2022-09-02T11:27:29;27.30;99.90
12845;DHT22;6489;48.508;9.206;2022-09-02T11:30:58;27.30;1.00
12845;DHT22;6489;48.508;9.206;2022-09-02T11:34:32;27.30;99.90
12845;DHT22;6489;48.508;9.206;2022-09-02T11:37:58;27.50;1.00
12845;DHT22;6489;48.508;9.206;2022-09-02T11:41:32;26.90;1.00
12845;DHT22;6489;48.508;9.206;2022-09-02T11:52:24;25.80;99.90
12845;DHT22;6489;48.508;9.206;2022-09-02T11:55:52;25.50;99.90
12845;DHT22;6489;48.508;9.206;2022-09-02T11:59:20;25.80;99.90
12845;DHT22;6489;48.508;9.206;2022-09-02T12:02:45;25.70;99.90
12845;DHT22;6489;48.508;9.206;2022-09-02T12:09:42;26.90;1.00
12845;DHT22;6489;48.508;9.206;2022-09-02T12:13:05;27.40;1.00
12845;DHT22;6489;48.508;9.206;2022-09-02T12:16:41;26.50;99.90
12845;DHT22;6489;48.508;9.206;2022-09-02T12:27:33;26.30;99.90
12845;DHT22;6489;48.508;9.206;2022-09-02T12:34:52;27.10;99.90
12845;DHT22;6489;48.508;9.206;2022-09-02T12:38:27;27.50;99.90
12845;DHT22;6489;48.508;9.206;2022-09-02T12:41:53;27.80;99.90
12845;DHT22;6489;48.508;9.206;2022-09-02T12:45:25;28.30;99.90
12845;DHT22;6489;48.508;9.206;2022-09-02T12:55:58;27.70;1.00
12845;DHT22;6489;48.508;9.206;2022-09-02T12:59:27;27.90;99.90
12845;DHT22;6489;48.508;9.206;2022-09-02T13:03:00;28.10;99.90
12845;DHT22;6489;48.508;9.206;2022-09-02T13:06:30;28.00;99.90
12845;DHT22;6489;48.508;9.206;2022-09-02T13:10:17;27.30;1.00
12845;DHT22;6489;48.508;9.206;2022-09-02T13:25:47;26.50;99.90
12845;DHT22;6489;48.508;9.206;2022-09-02T13:32:55;26.80;99.90
12845;DHT22;6489;48.508;9.206;2022-09-02T13:36:23;26.70;99.90
12845;DHT22;6489;48.508;9.206;2022-09-02T13:39:48;27.30;1.00
12845;DHT22;6489;48.508;9.206;2022-09-02T13:46:43;26.40;99.90
12845;DHT22;6489;48.508;9.206;2022-09-02T13:50:06;25.50;1.00
12845;DHT22;6489;48.508;9.206;2022-09-02T13:53:32;27.20;1.00
12845;DHT22;6489;48.508;9.206;2022-09-02T13:56:58;26.30;99.90
12845;DHT22;6489;48.508;9.206;2022-09-02T14:00:28;25.50;1.00
12845;DHT22;6489;48.508;9.206;2022-09-02T14:07:13;27.00;1.00
12845;DHT22;6489;48.508;9.206;2022-09-02T14:10:36;25.80;1.00
12845;DHT22;6489;48.508;9.206;2022-09-02T14:21:02;26.60;99.90
12845;DHT22;6489;48.508;9.206;2022-09-02T14:27:48;26.30;1.00
12845;DHT22;6489;48.508;9.206;2022-09-02T14:31:23;26.10;99.90
12845;DHT22;6489;48.508;9.206;2022-09-02T14:38:22;25.80;99.90
12845;DHT22;6489;48.508;9.206;2022-09-02T14:45:09;25.10;99.90
12845;DHT22;6489;48.508;9.206;2022-09-02T14:48:36;25.00;99.90
12845;DHT22;6489;48.508;9.206;2022-09-02T14:55:55;25.10;99.90
12845;DHT22;6489;48.508;9.206;2022-09-02T15:02:42;24.60;1.00
12845;DHT22;6489;48.508;9.206;2022-09-02T15:06:07;25.10;99.90
12845;DHT22;6489;48.508;9.206;2022-09-02T15:09:29;25.30;1.00
12845;DHT22;6489;48.508;9.206;2022-09-02T15:12:52;25.20;1.00
12845;DHT22;6489;48.508;9.206;2022-09-02T15:16:15;24.30;1.00
12845;DHT22;6489;48.508;9.206;2022-09-02T15:26:23;24.60;1.00
12845;DHT22;6489;48.508;9.206;2022-09-02T15:33:08;24.40;99.90
12845;DHT22;6489;48.508;9.206;2022-09-02T15:36:29;25.00;1.00
12845;DHT22;6489;48.508;9.206;2022-09-02T15:39:53;24.50;99.90
12845;DHT22;6489;48.508;9.206;2022-09-02T15:46:39;24.80;1.00
12845;DHT22;6489;48.508;9.206;2022-09-02T15:50:02;24.60;1.00
12845;DHT22;6489;48.508;9.206;2022-09-02T16:00:10;24.10;1.00
12845;DHT22;6489;48.508;9.206;2022-09-02T16:03:32;24.00;1.00
12845;DHT22;6489;48.508;9.206;2022-09-02T16:06:55;23.60;1.00
12845;DHT22;6489;48.508;9.206;2022-09-02T16:13:41;24.10;99.90
12845;DHT22;6489;48.508;9.206;2022-09-02T16:20:25;24.20;99.90
12845;DHT22;6489;48.508;9.206;2022-09-02T16:23:47;24.00;1.00
12845;DHT22;6489;48.508;9.206;2022-09-02T16:27:09;23.80;1.00
12845;DHT22;6489;48.508;9.206;2022-09-02T16:30:33;23.90;1.00
12845;DHT22;6489;48.508;9.206;2022-09-02T16:33:56;24.90;99.90
12845;DHT22;6489;48.508;9.206;2022-09-02T16:37:18;24.70;1.00
12845;DHT22;6489;48.508;9.206;2022-09-02T16:40:48;24.20;99.90
12845;DHT22;6489;48.508;9.206;2022-09-02T16:44:12;24.90;1.00
12845;DHT22;6489;48.508;9.206;2022-09-02T16:47:36;24.40;1.00
12845;DHT22;6489;48.508;9.206;2022-09-02T16:51:02;23.80;99.90
12845;DHT22;6489;48.508;9.206;2022-09-02T16:54:25;23.60;1.00
12845;DHT22;6489;48.508;9.206;2022-09-02T17:01:10;23.90;1.00
12845;DHT22;6489;48.508;9.206;2022-09-02T17:04:34;23.50;99.90
12845;DHT22;6489;48.508;9.206;2022-09-02T17:07:56;23.10;1.00
12845;DHT22;6489;48.508;9.206;2022-09-02T17:11:22;23.60;1.00
12845;DHT22;6489;48.508;9.206;2022-09-02T17:24:54;22.90;1.00
12845;DHT22;6489;48.508;9.206;2022-09-02T17:28:16;22.70;1.00
12845;DHT22;6489;48.508;9.206;2022-09-02T17:31:38;23.70;1.00
12845;DHT22;6489;48.508;9.206;2022-09-02T17:35:00;22.60;1.00
12845;DHT22;6489;48.508;9.206;2022-09-02T17:38:24;22.50;99.90
12845;DHT22;6489;48.508;9.206;2022-09-02T17:41:45;22.10;1.00
12845;DHT22;6489;48.508;9.206;2022-09-02T18:06:06;22.00;99.90
12845;DHT22;6489;48.508;9.206;2022-09-02T18:09:30;21.40;1.00
12845;DHT22;6489;48.508;9.206;2022-09-02T18:12:55;21.80;1.00
12845;DHT22;6489;48.508;9.206;2022-09-02T18:16:27;21.70;1.00
12845;DHT22;6489;48.508;9.206;2022-09-02T18:23:31;21.50;99.90
12845;DHT22;6489;48.508;9.206;2022-09-02T18:30:23;21.40;99.90
12845;DHT22;6489;48.508;9.206;2022-09-02T18:34:01;21.30;99.90
12845;DHT22;6489;48.508;9.206;2022-09-02T18:37:41;21.20;99.90
12845;DHT22;6489;48.508;9.206;2022-09-02T18:41:15;21.10;99.90
12845;DHT22;6489;48.508;9.206;2022-09-02T18:44:51;21.00;99.90
12845;DHT22;6489;48.508;9.206;2022-09-02T18:48:18;21.00;99.90
12845;DHT22;6489;48.508;9.206;2022-09-02T18:51:42;21.30;1.00
12845;DHT22;6489;48.508;9.206;2022-09-02T19:02:00;20.90;99.90
12845;DHT22;6489;48.508;9.206;2022-09-02T19:05:26;20.80;99.90
12845;DHT22;6489;48.508;9.206;2022-09-02T19:12:18;20.40;1.00
12845;DHT22;6489;48.508;9.206;2022-09-02T19:15:40;20.80;1.00
12845;DHT22;6489;48.508;9.206;2022-09-02T19:22:26;20.60;99.90
12845;DHT22;6489;48.508;9.206;2022-09-02T19:32:36;20.50;99.90
12845;DHT22;6489;48.508;9.206;2022-09-02T19:35:59;21.00;1.00
12845;DHT22;6489;48.508;9.206;2022-09-02T19:39:22;20.70;1.00
12845;DHT22;6489;48.508;9.206;2022-09-02T19:42:46;20.50;99.90
12845;DHT22;6489;48.508;9.206;2022-09-02T19:49:30;21.10;1.00
12845;DHT22;6489;48.508;9.206;2022-09-02T19:52:54;20.10;1.00
12845;DHT22;6489;48.508;9.206;2022-09-02T19:56:17;20.40;99.90
12845;DHT22;6489;48.508;9.206;2022-09-02T19:59:40;21.00;1.00
12845;DHT22;6489;48.508;9.206;2022-09-02T20:03:02;20.30;1.00
12845;DHT22;6489;48.508;9.206;2022-09-02T20:06:23;20.20;1.00
12845;DHT22;6489;48.508;9.206;2022-09-02T20:09:45;20.70;1.00
12845;DHT22;6489;48.508;9.206;2022-09-02T20:13:11;20.50;99.90
12845;DHT22;6489;48.508;9.206;2022-09-02T20:16:34;20.70;1.00
12845;DHT22;6489;48.508;9.206;2022-09-02T20:19:56;20.10;1.00
12845;DHT22;6489;48.508;9.206;2022-09-02T20:23:21;20.60;1.00
12845;DHT22;6489;48.508;9.206;2022-09-02T20:26:57;20.00;1.00
12845;DHT22;6489;48.508;9.206;2022-09-02T20:30:22;20.20;1.00
12845;DHT22;6489;48.508;9.206;2022-09-02T20:37:24;20.10;1.00
12845;DHT22;6489;48.508;9.206;2022-09-02T20:40:50;19.90;99.90
12845;DHT22;6489;48.508;9.206;2022-09-02T20:47:58;19.90;99.90
12845;DHT22;6489;48.508;9.206;2022-09-02T20:51:28;19.80;99.90
12845;DHT22;6489;48.508;9.206;2022-09-02T20:54:54;19.80;99.90
12845;DHT22;6489;48.508;9.206;2022-09-02T20:58:26;19.70;1.00
12845;DHT22;6489;48.508;9.206;2022-09-02T21:01:49;19.50;1.00
12845;DHT22;6489;48.508;9.206;2022-09-02T21:05:19;19.70;99.90
12845;DHT22;6489;48.508;9.206;2022-09-02T21:08:48;20.00;1.00
12845;DHT22;6489;48.508;9.206;2022-09-02T21:12:27;19.60;1.00
12845;DHT22;6489;48.508;9.206;2022-09-02T21:15:56;20.20;1.00
12845;DHT22;6489;48.508;9.206;2022-09-02T21:19:22;19.60;99.90
12845;DHT22;6489;48.508;9.206;2022-09-02T21:22:52;20.10;1.00
12845;DHT22;6489;48.508;9.206;2022-09-02T21:26:19;19.90;1.00
12845;DHT22;6489;48.508;9.206;2022-09-02T21:29:46;19.50;1.00
12845;DHT22;6489;48.508;9.206;2022-09-02T21:33:14;20.10;1.00
12845;DHT22;6489;48.508;9.206;2022-09-02T21:36:37;19.60;99.90
12845;DHT22;6489;48.508;9.206;2022-09-02T21:40:03;19.50;99.90
12845;DHT22;6489;48.508;9.206;2022-09-02T21:43:37;19.50;99.90
12845;DHT22;6489;48.508;9.206;2022-09-02T21:47:08;19.50;99.90
12845;DHT22;6489;48.508;9.206;2022-09-02T21:50:38;19.10;1.00
12845;DHT22;6489;48.508;9.206;2022-09-02T21:54:25;19.60;99.90
12845;DHT22;6489;48.508;9.206;2022-09-02T21:58:00;19.50;99.90
12845;DHT22;6489;48.508;9.206;2022-09-02T22:01:31;19.50;99.90
12845;DHT22;6489;48.508;9.206;2022-09-02T22:05:04;19.80;1.00
12845;DHT22;6489;48.508;9.206;2022-09-02T22:08:31;19.70;1.00
12845;DHT22;6489;48.508;9.206;2022-09-02T22:12:00;19.50;1.00
12845;DHT22;6489;48.508;9.206;2022-09-02T22:15:30;19.90;1.00
12845;DHT22;6489;48.508;9.206;2022-09-02T22:18:59;19.90;1.00
12845;DHT22;6489;48.508;9.206;2022-09-02T22:22:27;19.50;99.90
12845;DHT22;6489;48.508;9.206;2022-09-02T22:25:50;20.20;1.00
12845;DHT22;6489;48.508;9.206;2022-09-02T22:29:18;19.60;1.00
12845;DHT22;6489;48.508;9.206;2022-09-02T22:32:47;19.60;1.00
12845;DHT22;6489;48.508;9.206;2022-09-02T22:36:23;19.80;1.00
12845;DHT22;6489;48.508;9.206;2022-09-02T22:39:50;19.30;1.00
12845;DHT22;6489;48.508;9.206;2022-09-02T22:43:16;19.30;1.00
12845;DHT22;6489;48.508;9.206;2022-09-02T22:46:44;20.10;1.00
12845;DHT22;6489;48.508;9.206;2022-09-02T22:50:36;19.60;99.90
12845;DHT22;6489;48.508;9.206;2022-09-02T22:54:17;19.60;1.00
12845;DHT22;6489;48.508;9.206;2022-09-02T22:57:45;19.60;99.90
12845;DHT22;6489;48.508;9.206;2022-09-02T23:01:17;19.60;99.90
12845;DHT22;6489;48.508;9.206;2022-09-02T23:08:30;19.70;99.90
12845;DHT22;6489;48.508;9.206;2022-09-02T23:12:03;19.60;99.90
12845;DHT22;6489;48.508;9.206;2022-09-02T23:19:03;19.30;1.00
12845;DHT22;6489;48.508;9.206;2022-09-02T23:29:30;20.30;1.00
12845;DHT22;6489;48.508;9.206;2022-09-02T23:33:11;19.60;99.90
12845;DHT22;6489;48.508;9.206;2022-09-02T23:36:43;19.60;99.90
12845;DHT22;6489;48.508;9.206;2022-09-02T23:40:14;19.60;99.90
12845;DHT22;6489;48.508;9.206;2022-09-02T23:43:39;19.30;1.00
12845;DHT22;6489;48.508;9.206;2022-09-02T23:50:35;19.30;1.00
12845;DHT22;6489;48.508;9.206;2022-09-02T23:54:14;19.50;1.00
12845;DHT22;6489;48.508;9.206;2022-09-02T23:57:56;19.50;99.90
